sensor_id;sensor_type;location;lat;lon;timestamp;P1;durP1;ratioP1;P2;durP2;ratioP2
1651;SDS011;823;49.028;8.454;2022-12-18T00:00:48;41.43;;;14.30;;
1651;SDS011;823;49.028;8.454;2022-12-18T00:05:52;58.73;;;15.67;;
1651;SDS011;823;49.028;8.454;2022-12-18T00:10:52;61.87;;;17.07;;
1651;SDS011;823;49.028;8.454;2022-12-18T00:15:52;57.43;;;16.07;;
1651;SDS011;823;49.028;8.454;2022-12-18T00:20:53;60.65;;;16.73;;
1651;SDS011;823;49.028;8.454;2022-12-18T00:25:53;48.80;;;15.50;;
1651;SDS011;823;49.028;8.454;2022-12-18T00:36:29;47.60;;;17.20;;
1651;SDS011;823;49.028;8.454;2022-12-18T00:41:31;41.83;;;14.53;;
1651;SDS011;823;49.028;8.454;2022-12-18T00:46:51;49.67;;;14.87;;
1651;SDS011;823;49.028;8.454;2022-12-18T00:51:51;55.80;;;16.77;;
1651;SDS011;823;49.028;8.454;2022-12-18T00:56:51;59.73;;;17.20;;
1651;SDS011;823;49.028;8.454;2022-12-18T01:01:52;57.20;;;17.30;;
1651;SDS011;823;49.028;8.454;2022-12-18T01:06:52;54.43;;;18.10;;
1651;SDS011;823;49.028;8.454;2022-12-18T01:11:52;54.40;;;16.03;;
1651;SDS011;823;49.028;8.454;2022-12-18T01:16:53;64.23;;;17.50;;
1651;SDS011;823;49.028;8.454;2022-12-18T01:21:53;62.07;;;17.80;;
1651;SDS011;823;49.028;8.454;2022-12-18T01:26:53;64.03;;;18.13;;
1651;SDS011;823;49.028;8.454;2022-12-18T01:31:57;63.17;;;19.70;;
1651;SDS011;823;49.028;8.454;2022-12-18T01:36:57;61.70;;;17.10;;
1651;SDS011;823;49.028;8.454;2022-12-18T01:42:05;66.67;;;17.03;;
1651;SDS011;823;49.028;8.454;2022-12-18T01:47:12;58.40;;;16.07;;
1651;SDS011;823;49.028;8.454;2022-12-18T01:52:20;59.73;;;15.33;;
1651;SDS011;823;49.028;8.454;2022-12-18T01:57:22;72.63;;;19.33;;
1651;SDS011;823;49.028;8.454;2022-12-18T02:02:24;65.47;;;18.10;;
1651;SDS011;823;49.028;8.454;2022-12-18T02:12:52;55.97;;;16.60;;
1651;SDS011;823;49.028;8.454;2022-12-18T02:18:07;66.97;;;17.97;;
1651;SDS011;823;49.028;8.454;2022-12-18T02:23:35;65.43;;;17.83;;
1651;SDS011;823;49.028;8.454;2022-12-18T02:28:59;51.93;;;15.57;;
1651;SDS011;823;49.028;8.454;2022-12-18T02:34:04;60.50;;;16.17;;
1651;SDS011;823;49.028;8.454;2022-12-18T02:39:08;55.07;;;16.20;;
1651;SDS011;823;49.028;8.454;2022-12-18T02:44:11;66.90;;;19.10;;
1651;SDS011;823;49.028;8.454;2022-12-18T02:55:01;52.10;;;15.80;;
1651;SDS011;823;49.028;8.454;2022-12-18T03:00:31;42.97;;;14.50;;
1651;SDS011;823;49.028;8.454;2022-12-18T03:05:47;51.47;;;15.13;;
1651;SDS011;823;49.028;8.454;2022-12-18T03:10:55;44.00;;;15.27;;
1651;SDS011;823;49.028;8.454;2022-12-18T03:16:00;59.77;;;17.00;;
1651;SDS011;823;49.028;8.454;2022-12-18T03:21:05;55.43;;;15.40;;
1651;SDS011;823;49.028;8.454;2022-12-18T03:26:09;56.03;;;15.47;;
1651;SDS011;823;49.028;8.454;2022-12-18T03:31:12;56.50;;;13.97;;
1651;SDS011;823;49.028;8.454;2022-12-18T03:36:14;48.20;;;13.60;;
1651;SDS011;823;49.028;8.454;2022-12-18T03:41:19;55.27;;;14.60;;
1651;SDS011;823;49.028;8.454;2022-12-18T03:51:55;63.23;;;13.03;;
1651;SDS011;823;49.028;8.454;2022-12-18T03:57:09;56.37;;;14.20;;
1651;SDS011;823;49.028;8.454;2022-12-18T04:02:15;49.50;;;13.70;;
1651;SDS011;823;49.028;8.454;2022-12-18T04:07:17;56.10;;;14.57;;
1651;SDS011;823;49.028;8.454;2022-12-18T04:12:20;46.47;;;13.10;;
1651;SDS011;823;49.028;8.454;2022-12-18T04:17:21;41.10;;;12.57;;
1651;SDS011;823;49.028;8.454;2022-12-18T04:22:21;61.33;;;14.97;;
1651;SDS011;823;49.028;8.454;2022-12-18T04:27:21;50.90;;;14.40;;
1651;SDS011;823;49.028;8.454;2022-12-18T04:32:22;59.13;;;14.30;;
1651;SDS011;823;49.028;8.454;2022-12-18T04:37:22;52.97;;;14.17;;
1651;SDS011;823;49.028;8.454;2022-12-18T04:42:23;51.50;;;13.80;;
1651;SDS011;823;49.028;8.454;2022-12-18T04:47:23;54.97;;;15.10;;
1651;SDS011;823;49.028;8.454;2022-12-18T04:52:24;63.63;;;14.18;;
1651;SDS011;823;49.028;8.454;2022-12-18T04:57:24;55.40;;;14.37;;
1651;SDS011;823;49.028;8.454;2022-12-18T05:02:24;58.57;;;15.67;;
1651;SDS011;823;49.028;8.454;2022-12-18T05:07:25;52.63;;;14.47;;
1651;SDS011;823;49.028;8.454;2022-12-18T05:12:25;57.17;;;14.43;;
1651;SDS011;823;49.028;8.454;2022-12-18T05:17:26;49.00;;;14.50;;
1651;SDS011;823;49.028;8.454;2022-12-18T05:22:26;58.80;;;14.33;;
1651;SDS011;823;49.028;8.454;2022-12-18T05:27:27;59.80;;;15.40;;
1651;SDS011;823;49.028;8.454;2022-12-18T05:32:27;72.70;;;14.77;;
1651;SDS011;823;49.028;8.454;2022-12-18T05:37:28;45.03;;;13.87;;
1651;SDS011;823;49.028;8.454;2022-12-18T05:42:28;59.20;;;14.43;;
1651;SDS011;823;49.028;8.454;2022-12-18T05:47:28;59.42;;;14.40;;
1651;SDS011;823;49.028;8.454;2022-12-18T05:52:29;52.13;;;14.60;;
1651;SDS011;823;49.028;8.454;2022-12-18T05:57:30;49.10;;;14.60;;
1651;SDS011;823;49.028;8.454;2022-12-18T06:02:30;51.73;;;14.40;;
1651;SDS011;823;49.028;8.454;2022-12-18T06:07:31;59.37;;;14.97;;
1651;SDS011;823;49.028;8.454;2022-12-18T06:12:31;60.83;;;16.65;;
1651;SDS011;823;49.028;8.454;2022-12-18T06:17:33;67.07;;;14.30;;
1651;SDS011;823;49.028;8.454;2022-12-18T06:22:34;54.83;;;15.77;;
1651;SDS011;823;49.028;8.454;2022-12-18T06:27:35;57.77;;;15.33;;
1651;SDS011;823;49.028;8.454;2022-12-18T06:32:35;51.63;;;15.20;;
1651;SDS011;823;49.028;8.454;2022-12-18T06:37:35;54.53;;;15.30;;
1651;SDS011;823;49.028;8.454;2022-12-18T06:42:36;54.67;;;15.57;;
1651;SDS011;823;49.028;8.454;2022-12-18T06:47:36;64.10;;;17.52;;
1651;SDS011;823;49.028;8.454;2022-12-18T06:52:38;44.70;;;14.37;;
1651;SDS011;823;49.028;8.454;2022-12-18T06:57:40;51.40;;;16.50;;
1651;SDS011;823;49.028;8.454;2022-12-18T07:02:40;72.03;;;15.17;;
1651;SDS011;823;49.028;8.454;2022-12-18T07:07:40;53.57;;;15.83;;
1651;SDS011;823;49.028;8.454;2022-12-18T07:12:41;63.58;;;14.80;;
1651;SDS011;823;49.028;8.454;2022-12-18T07:17:41;66.88;;;17.25;;
1651;SDS011;823;49.028;8.454;2022-12-18T07:22:41;66.20;;;14.37;;
1651;SDS011;823;49.028;8.454;2022-12-18T07:27:42;61.97;;;14.57;;
1651;SDS011;823;49.028;8.454;2022-12-18T07:32:42;52.70;;;15.87;;
1651;SDS011;823;49.028;8.454;2022-12-18T07:37:42;82.53;;;16.10;;
1651;SDS011;823;49.028;8.454;2022-12-18T07:42:43;46.25;;;14.25;;
1651;SDS011;823;49.028;8.454;2022-12-18T07:47:43;51.00;;;16.20;;
1651;SDS011;823;49.028;8.454;2022-12-18T07:52:43;46.65;;;15.60;;
1651;SDS011;823;49.028;8.454;2022-12-18T07:57:43;61.45;;;14.70;;
1651;SDS011;823;49.028;8.454;2022-12-18T08:02:44;51.25;;;13.02;;
1651;SDS011;823;49.028;8.454;2022-12-18T08:07:44;51.00;;;16.00;;
1651;SDS011;823;49.028;8.454;2022-12-18T08:12:45;45.70;;;14.03;;
1651;SDS011;823;49.028;8.454;2022-12-18T08:17:45;61.20;;;15.00;;
1651;SDS011;823;49.028;8.454;2022-12-18T08:22:45;50.47;;;13.47;;
1651;SDS011;823;49.028;8.454;2022-12-18T08:27:46;68.20;;;15.07;;
1651;SDS011;823;49.028;8.454;2022-12-18T08:32:46;48.83;;;14.07;;
1651;SDS011;823;49.028;8.454;2022-12-18T08:37:47;57.73;;;14.97;;
1651;SDS011;823;49.028;8.454;2022-12-18T08:42:47;46.77;;;14.17;;
1651;SDS011;823;49.028;8.454;2022-12-18T08:48:06;59.80;;;15.67;;
1651;SDS011;823;49.028;8.454;2022-12-18T08:53:06;59.23;;;16.50;;
1651;SDS011;823;49.028;8.454;2022-12-18T08:58:06;64.60;;;16.50;;
1651;SDS011;823;49.028;8.454;2022-12-18T09:03:25;46.97;;;13.40;;
1651;SDS011;823;49.028;8.454;2022-12-18T09:08:25;70.90;;;17.67;;
1651;SDS011;823;49.028;8.454;2022-12-18T09:13:26;57.43;;;17.03;;
1651;SDS011;823;49.028;8.454;2022-12-18T09:18:26;47.50;;;13.80;;
1651;SDS011;823;49.028;8.454;2022-12-18T09:23:27;64.83;;;18.90;;
1651;SDS011;823;49.028;8.454;2022-12-18T09:28:27;59.07;;;15.57;;
1651;SDS011;823;49.028;8.454;2022-12-18T09:33:27;56.10;;;15.10;;
1651;SDS011;823;49.028;8.454;2022-12-18T09:38:28;55.58;;;16.27;;
1651;SDS011;823;49.028;8.454;2022-12-18T09:48:49;53.67;;;15.90;;
1651;SDS011;823;49.028;8.454;2022-12-18T09:53:53;46.90;;;15.30;;
1651;SDS011;823;49.028;8.454;2022-12-18T09:58:59;69.13;;;16.50;;
1651;SDS011;823;49.028;8.454;2022-12-18T10:04:01;64.63;;;16.00;;
1651;SDS011;823;49.028;8.454;2022-12-18T10:09:05;54.33;;;16.67;;
1651;SDS011;823;49.028;8.454;2022-12-18T10:14:28;52.13;;;15.30;;
1651;SDS011;823;49.028;8.454;2022-12-18T10:29:57;55.03;;;15.70;;
1651;SDS011;823;49.028;8.454;2022-12-18T10:34:58;71.90;;;22.20;;
1651;SDS011;823;49.028;8.454;2022-12-18T10:40:19;67.93;;;17.60;;
1651;SDS011;823;49.028;8.454;2022-12-18T10:45:19;64.70;;;18.20;;
1651;SDS011;823;49.028;8.454;2022-12-18T10:50:27;61.00;;;17.43;;
1651;SDS011;823;49.028;8.454;2022-12-18T10:55:37;71.03;;;18.90;;
1651;SDS011;823;49.028;8.454;2022-12-18T11:00:44;58.67;;;18.63;;
1651;SDS011;823;49.028;8.454;2022-12-18T11:05:44;79.43;;;19.50;;
1651;SDS011;823;49.028;8.454;2022-12-18T11:10:44;64.53;;;17.10;;
1651;SDS011;823;49.028;8.454;2022-12-18T11:15:47;55.53;;;15.57;;
1651;SDS011;823;49.028;8.454;2022-12-18T11:20:58;57.67;;;16.80;;
1651;SDS011;823;49.028;8.454;2022-12-18T11:26:05;53.00;;;17.40;;
1651;SDS011;823;49.028;8.454;2022-12-18T11:31:23;60.53;;;18.30;;
1651;SDS011;823;49.028;8.454;2022-12-18T11:36:25;58.37;;;15.77;;
1651;SDS011;823;49.028;8.454;2022-12-18T11:41:45;40.87;;;15.10;;
1651;SDS011;823;49.028;8.454;2022-12-18T11:47:11;45.70;;;14.30;;
1651;SDS011;823;49.028;8.454;2022-12-18T11:52:26;54.33;;;15.80;;
1651;SDS011;823;49.028;8.454;2022-12-18T12:19:23;53.27;;;16.60;;
1651;SDS011;823;49.028;8.454;2022-12-18T12:40:23;56.20;;;18.00;;
1651;SDS011;823;49.028;8.454;2022-12-18T12:45:34;50.47;;;17.10;;
1651;SDS011;823;49.028;8.454;2022-12-18T12:50:39;63.53;;;17.70;;
1651;SDS011;823;49.028;8.454;2022-12-18T12:55:41;54.10;;;15.83;;
1651;SDS011;823;49.028;8.454;2022-12-18T13:00:47;61.07;;;17.60;;
1651;SDS011;823;49.028;8.454;2022-12-18T13:05:58;64.73;;;16.97;;
1651;SDS011;823;49.028;8.454;2022-12-18T13:11:03;60.70;;;17.90;;
1651;SDS011;823;49.028;8.454;2022-12-18T13:16:23;53.60;;;16.13;;
1651;SDS011;823;49.028;8.454;2022-12-18T13:21:32;44.20;;;15.80;;
1651;SDS011;823;49.028;8.454;2022-12-18T13:26:34;57.73;;;16.30;;
1651;SDS011;823;49.028;8.454;2022-12-18T13:36:38;58.70;;;19.50;;
1651;SDS011;823;49.028;8.454;2022-12-18T13:41:39;59.70;;;17.27;;
1651;SDS011;823;49.028;8.454;2022-12-18T13:46:44;58.47;;;17.90;;
1651;SDS011;823;49.028;8.454;2022-12-18T13:51:49;55.30;;;17.70;;
1651;SDS011;823;49.028;8.454;2022-12-18T13:56:52;48.10;;;17.60;;
1651;SDS011;823;49.028;8.454;2022-12-18T14:06:57;46.53;;;16.97;;
1651;SDS011;823;49.028;8.454;2022-12-18T14:12:02;56.03;;;17.30;;
1651;SDS011;823;49.028;8.454;2022-12-18T14:17:22;57.33;;;18.53;;
1651;SDS011;823;49.028;8.454;2022-12-18T14:22:24;61.93;;;17.60;;
1651;SDS011;823;49.028;8.454;2022-12-18T14:27:29;56.90;;;18.87;;
1651;SDS011;823;49.028;8.454;2022-12-18T14:32:30;58.90;;;17.10;;
1651;SDS011;823;49.028;8.454;2022-12-18T14:37:30;56.10;;;17.83;;
1651;SDS011;823;49.028;8.454;2022-12-18T14:42:31;48.13;;;15.53;;
1651;SDS011;823;49.028;8.454;2022-12-18T14:47:31;46.87;;;17.17;;
1651;SDS011;823;49.028;8.454;2022-12-18T14:52:32;63.57;;;17.00;;
1651;SDS011;823;49.028;8.454;2022-12-18T14:57:34;51.40;;;16.23;;
1651;SDS011;823;49.028;8.454;2022-12-18T15:02:37;58.23;;;17.63;;
1651;SDS011;823;49.028;8.454;2022-12-18T15:07:45;61.40;;;17.80;;
1651;SDS011;823;49.028;8.454;2022-12-18T15:17:57;59.53;;;16.97;;
1651;SDS011;823;49.028;8.454;2022-12-18T15:23:03;49.60;;;16.47;;
1651;SDS011;823;49.028;8.454;2022-12-18T15:28:03;71.23;;;18.97;;
1651;SDS011;823;49.028;8.454;2022-12-18T15:33:16;51.70;;;16.87;;
1651;SDS011;823;49.028;8.454;2022-12-18T15:38:25;54.70;;;16.67;;
1651;SDS011;823;49.028;8.454;2022-12-18T15:43:26;53.70;;;16.20;;
1651;SDS011;823;49.028;8.454;2022-12-18T15:48:40;66.60;;;18.90;;
1651;SDS011;823;49.028;8.454;2022-12-18T15:53:52;52.50;;;17.60;;
1651;SDS011;823;49.028;8.454;2022-12-18T15:58:55;70.47;;;17.97;;
1651;SDS011;823;49.028;8.454;2022-12-18T16:03:56;57.20;;;19.23;;
1651;SDS011;823;49.028;8.454;2022-12-18T16:08:57;71.30;;;20.40;;
1651;SDS011;823;49.028;8.454;2022-12-18T16:13:57;62.17;;;19.45;;
1651;SDS011;823;49.028;8.454;2022-12-18T16:18:57;62.92;;;20.77;;
1651;SDS011;823;49.028;8.454;2022-12-18T16:23:57;70.97;;;20.38;;
1651;SDS011;823;49.028;8.454;2022-12-18T16:28:58;56.23;;;18.90;;
1651;SDS011;823;49.028;8.454;2022-12-18T16:39:22;68.70;;;19.97;;
1651;SDS011;823;49.028;8.454;2022-12-18T16:44:22;74.07;;;21.07;;
1651;SDS011;823;49.028;8.454;2022-12-18T16:49:23;77.82;;;22.35;;
1651;SDS011;823;49.028;8.454;2022-12-18T16:54:23;56.70;;;21.45;;
1651;SDS011;823;49.028;8.454;2022-12-18T16:59:24;71.87;;;21.40;;
1651;SDS011;823;49.028;8.454;2022-12-18T17:04:25;68.07;;;21.90;;
1651;SDS011;823;49.028;8.454;2022-12-18T17:09:26;70.60;;;24.20;;
1651;SDS011;823;49.028;8.454;2022-12-18T17:14:26;64.80;;;23.83;;
1651;SDS011;823;49.028;8.454;2022-12-18T17:19:26;66.73;;;22.40;;
1651;SDS011;823;49.028;8.454;2022-12-18T17:24:27;68.73;;;21.37;;
1651;SDS011;823;49.028;8.454;2022-12-18T17:29:27;78.20;;;21.15;;
1651;SDS011;823;49.028;8.454;2022-12-18T17:34:28;69.63;;;18.70;;
1651;SDS011;823;49.028;8.454;2022-12-18T17:39:28;78.10;;;20.53;;
1651;SDS011;823;49.028;8.454;2022-12-18T17:44:29;79.77;;;20.50;;
1651;SDS011;823;49.028;8.454;2022-12-18T17:49:29;62.92;;;19.48;;
1651;SDS011;823;49.028;8.454;2022-12-18T17:54:30;73.00;;;19.13;;
1651;SDS011;823;49.028;8.454;2022-12-18T17:59:32;70.47;;;21.10;;
1651;SDS011;823;49.028;8.454;2022-12-18T18:04:32;66.23;;;19.10;;
1651;SDS011;823;49.028;8.454;2022-12-18T18:09:32;61.38;;;18.70;;
1651;SDS011;823;49.028;8.454;2022-12-18T18:14:32;54.67;;;18.90;;
1651;SDS011;823;49.028;8.454;2022-12-18T18:19:33;65.55;;;20.10;;
1651;SDS011;823;49.028;8.454;2022-12-18T18:24:33;61.58;;;20.73;;
1651;SDS011;823;49.028;8.454;2022-12-18T18:29:33;70.55;;;21.60;;
1651;SDS011;823;49.028;8.454;2022-12-18T18:34:34;66.60;;;19.08;;
1651;SDS011;823;49.028;8.454;2022-12-18T18:39:34;71.50;;;21.57;;
1651;SDS011;823;49.028;8.454;2022-12-18T18:44:35;73.27;;;20.70;;
1651;SDS011;823;49.028;8.454;2022-12-18T18:49:35;67.30;;;19.57;;
1651;SDS011;823;49.028;8.454;2022-12-18T18:54:36;67.07;;;19.48;;
1651;SDS011;823;49.028;8.454;2022-12-18T18:59:36;75.10;;;20.57;;
1651;SDS011;823;49.028;8.454;2022-12-18T19:04:36;80.60;;;21.47;;
1651;SDS011;823;49.028;8.454;2022-12-18T19:09:37;76.43;;;19.77;;
1651;SDS011;823;49.028;8.454;2022-12-18T19:14:37;75.73;;;18.33;;
1651;SDS011;823;49.028;8.454;2022-12-18T19:19:38;62.83;;;17.60;;
1651;SDS011;823;49.028;8.454;2022-12-18T19:24:38;79.03;;;20.07;;
1651;SDS011;823;49.028;8.454;2022-12-18T19:29:39;74.40;;;18.97;;
1651;SDS011;823;49.028;8.454;2022-12-18T19:34:39;75.83;;;21.70;;
1651;SDS011;823;49.028;8.454;2022-12-18T19:39:39;65.70;;;19.37;;
1651;SDS011;823;49.028;8.454;2022-12-18T19:44:40;90.70;;;22.57;;
1651;SDS011;823;49.028;8.454;2022-12-18T19:49:40;77.15;;;20.95;;
1651;SDS011;823;49.028;8.454;2022-12-18T19:54:40;81.35;;;20.00;;
1651;SDS011;823;49.028;8.454;2022-12-18T19:59:41;75.33;;;20.30;;
1651;SDS011;823;49.028;8.454;2022-12-18T20:04:41;75.20;;;21.60;;
1651;SDS011;823;49.028;8.454;2022-12-18T20:09:42;79.03;;;20.45;;
1651;SDS011;823;49.028;8.454;2022-12-18T20:14:42;78.97;;;19.00;;
1651;SDS011;823;49.028;8.454;2022-12-18T20:19:42;85.70;;;21.90;;
1651;SDS011;823;49.028;8.454;2022-12-18T20:24:43;79.77;;;21.13;;
1651;SDS011;823;49.028;8.454;2022-12-18T20:29:43;83.10;;;20.07;;
1651;SDS011;823;49.028;8.454;2022-12-18T20:34:43;66.43;;;19.53;;
1651;SDS011;823;49.028;8.454;2022-12-18T20:39:44;64.85;;;21.20;;
1651;SDS011;823;49.028;8.454;2022-12-18T20:44:44;88.07;;;22.38;;
1651;SDS011;823;49.028;8.454;2022-12-18T20:49:44;76.78;;;19.83;;
1651;SDS011;823;49.028;8.454;2022-12-18T20:54:45;73.63;;;21.00;;
1651;SDS011;823;49.028;8.454;2022-12-18T20:59:45;75.82;;;21.48;;
1651;SDS011;823;49.028;8.454;2022-12-18T21:04:45;91.00;;;21.43;;
1651;SDS011;823;49.028;8.454;2022-12-18T21:09:46;69.83;;;19.80;;
1651;SDS011;823;49.028;8.454;2022-12-18T21:14:46;87.70;;;20.98;;
1651;SDS011;823;49.028;8.454;2022-12-18T21:19:47;73.17;;;22.83;;
1651;SDS011;823;49.028;8.454;2022-12-18T21:24:47;79.47;;;21.77;;
1651;SDS011;823;49.028;8.454;2022-12-18T21:29:47;64.40;;;22.03;;
1651;SDS011;823;49.028;8.454;2022-12-18T21:34:48;72.67;;;20.97;;
1651;SDS011;823;49.028;8.454;2022-12-18T21:39:48;78.38;;;22.23;;
1651;SDS011;823;49.028;8.454;2022-12-18T21:44:48;75.10;;;23.70;;
1651;SDS011;823;49.028;8.454;2022-12-18T21:49:52;82.97;;;22.07;;
1651;SDS011;823;49.028;8.454;2022-12-18T21:54:52;80.40;;;21.67;;
1651;SDS011;823;49.028;8.454;2022-12-18T21:59:53;75.60;;;25.30;;
1651;SDS011;823;49.028;8.454;2022-12-18T22:04:53;68.70;;;22.87;;
1651;SDS011;823;49.028;8.454;2022-12-18T22:09:53;78.60;;;20.43;;
1651;SDS011;823;49.028;8.454;2022-12-18T22:14:54;77.63;;;22.42;;
1651;SDS011;823;49.028;8.454;2022-12-18T22:19:54;75.10;;;20.60;;
1651;SDS011;823;49.028;8.454;2022-12-18T22:24:54;87.85;;;22.63;;
1651;SDS011;823;49.028;8.454;2022-12-18T22:29:55;73.53;;;22.73;;
1651;SDS011;823;49.028;8.454;2022-12-18T22:35:04;75.57;;;22.27;;
1651;SDS011;823;49.028;8.454;2022-12-18T22:40:05;78.73;;;21.70;;
1651;SDS011;823;49.028;8.454;2022-12-18T22:45:06;76.83;;;21.40;;
1651;SDS011;823;49.028;8.454;2022-12-18T22:50:06;78.77;;;21.87;;
1651;SDS011;823;49.028;8.454;2022-12-18T22:55:07;81.50;;;22.00;;
1651;SDS011;823;49.028;8.454;2022-12-18T23:00:08;78.33;;;21.17;;
1651;SDS011;823;49.028;8.454;2022-12-18T23:05:09;72.57;;;22.07;;
1651;SDS011;823;49.028;8.454;2022-12-18T23:10:09;75.35;;;21.20;;
1651;SDS011;823;49.028;8.454;2022-12-18T23:15:09;85.67;;;22.50;;
1651;SDS011;823;49.028;8.454;2022-12-18T23:20:10;82.63;;;20.60;;
1651;SDS011;823;49.028;8.454;2022-12-18T23:25:10;83.00;;;24.50;;
1651;SDS011;823;49.028;8.454;2022-12-18T23:30:11;72.45;;;21.85;;
1651;SDS011;823;49.028;8.454;2022-12-18T23:35:11;72.70;;;20.77;;
1651;SDS011;823;49.028;8.454;2022-12-18T23:40:12;73.55;;;22.52;;
1651;SDS011;823;49.028;8.454;2022-12-18T23:45:12;74.87;;;23.37;;
1651;SDS011;823;49.028;8.454;2022-12-18T23:50:12;75.82;;;22.30;;
1651;SDS011;823;49.028;8.454;2022-12-18T23:55:13;67.57;;;21.00;;
